Time;durP1;ratioP1;P1;durP2;ratioP2;P2;SDS_P1;SDS_P2;PMS_P1;PMS_P2;Temp;Humidity;BMP_temperature;BMP_pressure;BME280_temperature;BME280_humidity;BME280_pressure;Samples;Min_cycle;Max_cycle;Signal;HPM_P1;HPM_P2
2022/03/28 00:02:12;;;;;;;41.92;20.00;;;;;;;2.13;65.36;94464.19;5112498;28;20019;-42
2022/03/28 00:04:37;;;;;;;41.15;21.45;;;;;;;1.96;66.47;94465.88;5112543;28;20031;-41
2022/03/28 00:07:03;;;;;;;36.15;20.00;;;;;;;1.85;66.86;94462.19;5092527;28;20032;-42
2022/03/28 00:09:28;;;;;;;29.30;17.70;;;;;;;1.75;67.79;94464.25;5092142;28;20571;-42
2022/03/28 00:11:54;;;;;;;36.38;18.45;;;;;;;1.80;67.47;94452.69;5091961;28;20234;-42
2022/03/28 00:14:20;;;;;;;29.50;15.15;;;;;;;2.03;67.12;94446.44;5091896;28;20584;-41
2022/03/28 00:16:46;;;;;;;24.60;15.30;;;;;;;2.17;66.20;94453.09;5092156;28;20020;-42
2022/03/28 00:19:11;;;;;;;27.70;14.18;;;;;;;1.76;66.94;94449.41;5091834;28;20112;-42
2022/03/28 00:21:37;;;;;;;21.67;13.55;;;;;;;1.86;66.98;94442.66;5092060;28;20028;-42
2022/03/28 00:24:03;;;;;;;28.73;16.05;;;;;;;1.77;67.76;94429.13;5092024;28;20424;-41
2022/03/28 00:26:28;;;;;;;29.13;16.40;;;;;;;1.63;69.17;94440.00;5091651;28;20032;-41
2022/03/28 00:28:53;;;;;;;28.08;15.18;;;;;;;1.78;68.13;94433.34;5091634;28;20073;-42
2022/03/28 00:31:19;;;;;;;25.77;14.45;;;;;;;1.75;68.32;94428.09;5091476;28;20031;-42
2022/03/28 00:33:45;;;;;;;21.80;12.45;;;;;;;1.82;66.92;94425.75;5091468;28;20035;-42
2022/03/28 00:36:10;;;;;;;28.88;13.38;;;;;;;1.72;67.06;94409.97;5091493;28;20027;-42
2022/03/28 00:38:36;;;;;;;43.63;22.45;;;;;;;1.93;65.98;94425.19;5091380;28;20020;-41
2022/03/28 00:41:01;;;;;;;46.35;24.85;;;;;;;1.99;65.64;94423.34;5091467;28;20020;-43
2022/03/28 00:43:27;;;;;;;49.95;25.55;;;;;;;2.02;65.44;94430.53;5091647;28;20019;-42
2022/03/28 00:45:53;;;;;;;42.83;23.25;;;;;;;2.11;65.01;94422.28;5091694;28;20095;-41
2022/03/28 00:48:18;;;;;;;49.22;21.85;;;;;;;1.89;65.44;94419.19;5091589;28;20125;-42
2022/03/28 00:50:44;;;;;;;39.78;20.23;;;;;;;1.97;65.62;94420.31;5091147;28;20051;-42
2022/03/28 00:53:11;;;;;;;42.35;20.00;;;;;;;1.99;65.10;94418.63;5091183;28;20027;-41
2022/03/28 00:55:37;;;;;;;35.20;18.25;;;;;;;1.94;65.33;94416.56;5091088;28;20556;-42
2022/03/28 00:58:02;;;;;;;39.42;19.83;;;;;;;1.71;65.68;94408.47;5097003;28;20054;-41
2022/03/28 01:00:28;;;;;;;36.08;18.52;;;;;;;1.69;66.67;94410.91;5111353;28;20135;-42
2022/03/28 01:02:53;;;;;;;38.20;17.77;;;;;;;1.64;67.48;94404.16;5096085;28;20061;-42
2022/03/28 01:05:19;;;;;;;37.55;18.50;;;;;;;1.81;67.29;94399.00;5091294;28;20024;-42
2022/03/28 01:07:46;;;;;;;41.00;19.02;;;;;;;1.63;67.28;94402.63;5089713;28;20172;-41
2022/03/28 01:10:12;;;;;;;40.35;19.25;;;;;;;1.59;66.44;94404.81;5091157;28;20081;-42
2022/03/28 01:12:42;;;;;;;45.25;25.70;;;;;;;1.64;66.42;94403.41;5090811;28;20036;-41
2022/03/28 01:15:09;;;;;;;44.88;23.40;;;;;;;1.63;66.14;94407.31;5091105;28;20020;-42
2022/03/28 01:20:18;;;;;;;50.65;25.50;;;;;;;1.65;66.55;94394.00;5090580;28;20031;-41
2022/03/28 01:22:44;;;;;;;47.15;24.25;;;;;;;1.79;66.26;94391.31;5090970;28;20028;-41
2022/03/28 01:25:09;;;;;;;44.85;22.08;;;;;;;1.75;66.19;94388.03;5090923;28;20020;-41
2022/03/28 01:27:38;;;;;;;38.65;18.40;;;;;;;1.43;66.07;94392.38;5090515;28;20019;-41
2022/03/28 01:30:04;;;;;;;34.47;17.23;;;;;;;1.14;67.38;94395.06;5089410;28;20027;-41
2022/03/28 01:32:30;;;;;;;27.50;14.60;;;;;;;1.15;67.51;94396.53;5090524;28;20497;-42
2022/03/28 01:34:56;;;;;;;34.05;16.48;;;;;;;1.44;66.18;94402.06;5090468;28;20031;-41
2022/03/28 01:37:21;;;;;;;47.95;19.90;;;;;;;1.40;66.91;94404.22;5090515;28;20020;-41
2022/03/28 01:39:47;;;;;;;71.78;35.72;;;;;;;1.11;68.39;94398.69;5090409;28;20029;-42
2022/03/28 01:42:12;;;;;;;88.55;42.38;;;;;;;0.81;69.99;94410.69;5090436;28;20035;-42
2022/03/28 01:44:37;;;;;;;39.80;19.83;;;;;;;0.79;70.24;94404.97;5090339;28;20031;-42
2022/03/28 01:47:03;;;;;;;40.28;19.33;;;;;;;1.17;69.29;94407.72;5090376;28;20028;-42
2022/03/28 01:49:29;;;;;;;41.63;20.17;;;;;;;1.15;68.39;94406.69;5090515;28;20028;-42
2022/03/28 01:51:54;;;;;;;44.50;20.02;;;;;;;1.22;68.69;94404.34;5090600;28;20456;-42
2022/03/28 01:54:20;;;;;;;47.97;22.48;;;;;;;1.33;68.56;94399.13;5090613;28;20420;-42
2022/03/28 01:56:45;;;;;;;52.40;22.23;;;;;;;1.19;68.16;94407.25;5090218;28;20412;-41
2022/03/28 01:59:11;;;;;;;56.25;25.58;;;;;;;1.21;68.42;94402.84;5089937;28;20024;-42
2022/03/28 02:01:37;;;;;;;41.00;22.23;;;;;;;1.13;68.95;94401.69;5090208;28;20024;-41
2022/03/28 02:04:03;;;;;;;42.15;18.85;;;;;;;0.91;69.09;94397.78;5090167;28;20031;-41
2022/03/28 02:06:29;;;;;;;35.42;16.92;;;;;;;0.57;69.67;94375.34;5090103;28;20024;-42
2022/03/28 02:08:54;;;;;;;33.13;16.73;;;;;;;0.99;68.41;94391.53;5090154;28;20093;-41
2022/03/28 02:11:20;;;;;;;32.45;16.85;;;;;;;0.87;68.36;94380.91;5090364;28;20084;-41
2022/03/28 02:13:46;;;;;;;36.20;19.13;;;;;;;0.87;68.10;94397.94;5090020;28;20031;-42
2022/03/28 02:16:12;;;;;;;31.67;17.00;;;;;;;0.98;67.49;94394.72;5090053;28;20020;-42
2022/03/28 02:18:38;;;;;;;42.20;17.70;;;;;;;0.92;67.89;94383.72;5090298;28;20036;-42
2022/03/28 02:21:04;;;;;;;32.58;16.88;;;;;;;0.89;67.97;94392.81;5090297;28;20020;-42
2022/03/28 02:23:30;;;;;;;33.30;16.25;;;;;;;0.96;67.72;94391.69;5090335;28;20110;-42
2022/03/28 02:25:56;;;;;;;33.78;17.27;;;;;;;0.93;67.39;94400.81;5090242;28;20024;-41
2022/03/28 02:28:22;;;;;;;31.38;16.98;;;;;;;0.96;66.81;94397.91;5089957;28;20016;-42
2022/03/28 02:30:47;;;;;;;34.75;18.05;;;;;;;1.11;66.00;94406.09;5090083;28;20027;-42
2022/03/28 02:33:13;;;;;;;29.55;15.88;;;;;;;1.10;66.26;94401.88;5093374;28;20503;-42
2022/03/28 02:35:38;;;;;;;29.00;15.32;;;;;;;0.72;68.17;94408.00;5094117;28;20081;-42
2022/03/28 02:38:04;;;;;;;36.05;16.85;;;;;;;0.64;68.23;94399.47;5094087;28;20122;-42
2022/03/28 02:40:30;;;;;;;34.38;15.80;;;;;;;0.54;68.51;94408.13;5094066;28;20161;-42
2022/03/28 02:42:58;;;;;;;28.90;16.75;;;;;;;0.46;68.92;94401.50;5093974;28;20485;-42
2022/03/28 02:45:25;;;;;;;27.67;15.82;;;;;;;0.18;70.15;94403.59;5093639;28;20511;-42
2022/03/28 02:47:50;;;;;;;32.55;15.48;;;;;;;0.27;70.06;94400.09;5093968;28;20029;-42
2022/03/28 02:50:16;;;;;;;29.98;14.68;;;;;;;0.48;69.23;94402.56;5093412;28;20032;-42
2022/03/28 02:52:41;;;;;;;24.13;14.20;;;;;;;0.65;68.81;94408.38;5093561;28;20024;-41
2022/03/28 02:55:07;;;;;;;24.67;14.63;;;;;;;0.41;69.04;94405.59;5106248;28;20084;-42
2022/03/28 02:57:33;;;;;;;28.70;16.90;;;;;;;0.35;69.29;94406.69;5113660;28;20035;-42
2022/03/28 02:59:59;;;;;;;37.85;19.13;;;;;;;0.37;69.16;94415.88;5113827;28;20047;-42
2022/03/28 03:02:24;;;;;;;42.35;21.23;;;;;;;0.35;68.43;94412.13;5113633;28;20031;-42
2022/03/28 03:04:49;;;;;;;35.88;17.42;;;;;;;0.14;69.05;94413.88;5113762;28;20015;-42
2022/03/28 03:07:15;;;;;;;36.47;15.88;;;;;;;0.35;69.06;94415.59;5113559;28;20028;-42
2022/03/28 03:09:40;;;;;;;34.03;16.70;;;;;;;0.50;68.40;94418.38;5113509;28;20076;-42
2022/03/28 03:12:06;;;;;;;26.55;16.02;;;;;;;0.29;68.26;94422.09;5113518;28;20026;-43
2022/03/28 03:14:32;;;;;;;38.22;20.42;;;;;;;0.07;68.44;94425.06;5113753;28;20019;-42
2022/03/28 03:16:58;;;;;;;32.13;17.45;;;;;;;0.26;68.53;94425.75;5113802;28;20023;-42
2022/03/28 03:19:23;;;;;;;31.35;15.35;;;;;;;0.20;68.85;94422.91;5113342;28;20022;-42
2022/03/28 03:21:48;;;;;;;27.80;15.70;;;;;;;0.23;68.76;94434.81;5113348;28;20020;-41
2022/03/28 03:24:14;;;;;;;50.70;26.45;;;;;;;0.27;68.67;94424.53;5113330;28;20036;-42
2022/03/28 03:26:40;;;;;;;66.85;31.33;;;;;;;0.37;67.46;94420.59;5113512;28;20011;-42
2022/03/28 03:29:05;;;;;;;53.75;28.25;;;;;;;0.45;66.97;94413.59;5112234;28;20020;-42
2022/03/28 03:31:31;;;;;;;66.70;35.13;;;;;;;0.47;67.42;94417.38;5113147;27;20028;-42
2022/03/28 03:33:56;;;;;;;51.00;23.92;;;;;;;0.41;67.27;94408.31;5113027;28;20020;-42
2022/03/28 03:36:22;;;;;;;39.92;21.80;;;;;;;0.37;68.12;94410.44;5113386;28;20020;-42
2022/03/28 03:38:47;;;;;;;46.10;22.95;;;;;;;0.17;68.63;94425.78;5113249;28;20541;-42
2022/03/28 03:41:13;;;;;;;54.17;27.13;;;;;;;-0.11;69.24;94415.00;5113258;27;20023;-42
2022/03/28 03:43:38;;;;;;;57.42;30.08;;;;;;;-0.33;70.26;94403.63;5112556;28;20077;-42
2022/03/28 03:46:04;;;;;;;50.25;25.67;;;;;;;-0.31;70.66;94409.34;5112847;28;20088;-42
2022/03/28 03:48:29;;;;;;;54.53;27.75;;;;;;;-0.37;70.32;94426.69;5113082;28;20024;-42
2022/03/28 03:50:55;;;;;;;85.65;43.85;;;;;;;-0.28;69.70;94427.41;5103458;27;20083;-42
2022/03/28 03:53:21;;;;;;;44.65;23.83;;;;;;;-0.33;69.29;94400.91;5092655;28;20031;-42
2022/03/28 03:55:47;;;;;;;46.97;23.00;;;;;;;0.04;69.25;94436.09;5092597;28;20031;-42
2022/03/28 03:58:13;;;;;;;65.05;31.10;;;;;;;0.10;68.81;94435.00;5098640;28;20031;-42
2022/03/28 04:00:40;;;;;;;97.93;40.55;;;;;;;-0.32;70.79;94434.19;5112437;28;20424;-42
2022/03/28 04:03:05;;;;;;;73.55;36.55;;;;;;;-0.19;70.75;94440.97;5112753;28;20031;-43
2022/03/28 04:05:32;;;;;;;101.93;46.38;;;;;;;-0.19;70.49;94446.38;5112508;28;20019;-42
2022/03/28 04:07:59;;;;;;;106.60;45.25;;;;;;;-0.02;70.38;94439.41;5112396;28;20023;-42
2022/03/28 04:10:26;;;;;;;96.38;49.50;;;;;;;-0.04;70.58;94439.13;5112553;27;20028;-42
2022/03/28 04:12:52;;;;;;;114.30;51.45;;;;;;;-0.12;70.57;94435.22;5112679;28;20019;-42
2022/03/28 04:15:17;;;;;;;134.82;58.60;;;;;;;-0.12;70.87;94445.31;5112490;28;20027;-42
2022/03/28 04:17:44;;;;;;;137.52;62.78;;;;;;;-0.36;71.87;94442.50;5112281;28;20408;-42
2022/03/28 04:20:12;;;;;;;47.53;23.60;;;;;;;-0.62;71.65;94446.72;5112188;28;20019;-42
2022/03/28 04:22:39;;;;;;;37.42;17.83;;;;;;;-0.53;71.48;94454.09;5112496;28;20024;-42
2022/03/28 04:25:05;;;;;;;54.85;24.02;;;;;;;-0.47;72.90;94447.63;5112378;28;20051;-42
2022/03/28 04:27:31;;;;;;;62.92;28.98;;;;;;;-0.55;72.42;94451.09;5112292;28;20043;-42
2022/03/28 04:29:56;;;;;;;60.78;29.50;;;;;;;-0.49;71.77;94460.88;5112234;28;20026;-42
2022/03/28 04:32:22;;;;;;;47.95;24.75;;;;;;;-0.33;70.40;94476.88;5111991;28;20019;-42
2022/03/28 04:34:48;;;;;;;63.05;28.80;;;;;;;-0.29;69.44;94453.03;5112207;28;20025;-42
2022/03/28 04:37:13;;;;;;;54.70;30.20;;;;;;;-0.29;70.37;94455.00;5112163;28;20019;-42
2022/03/28 04:39:38;;;;;;;60.42;29.33;;;;;;;-0.18;70.52;94468.84;5111752;28;20557;-42
2022/03/28 04:42:04;;;;;;;66.07;31.55;;;;;;;-0.11;69.74;94463.84;5111790;28;20076;-42
2022/03/28 04:44:30;;;;;;;59.65;28.45;;;;;;;-0.29;70.76;94463.91;5111911;28;20026;-42
2022/03/28 04:46:55;;;;;;;58.90;30.73;;;;;;;-0.25;71.48;94464.50;5104827;27;20035;-42
2022/03/28 04:49:21;;;;;;;57.53;30.00;;;;;;;-0.18;70.46;94463.44;5091442;28;20024;-42
2022/03/28 04:51:46;;;;;;;54.03;29.08;;;;;;;-0.13;69.65;94463.56;5091231;28;20485;-41
2022/03/28 04:54:11;;;;;;;50.72;27.65;;;;;;;-0.18;69.89;94468.84;5090670;28;20038;-42
2022/03/28 04:56:37;;;;;;;54.17;27.85;;;;;;;-0.40;71.15;94474.44;5090978;28;20035;-42
2022/03/28 04:59:02;;;;;;;57.55;25.30;;;;;;;-0.25;71.45;94475.34;5105560;28;20027;-42
2022/03/28 05:01:28;;;;;;;44.58;23.75;;;;;;;-0.27;71.54;94472.34;5111666;28;20485;-42
2022/03/28 05:03:53;;;;;;;44.20;24.50;;;;;;;-0.05;71.16;94467.47;5111556;28;20485;-42
2022/03/28 05:06:19;;;;;;;40.33;22.80;;;;;;;0.19;69.70;94469.53;5110852;28;20417;-42
2022/03/28 05:08:44;;;;;;;45.33;26.13;;;;;;;0.03;70.99;94475.28;5111521;28;20115;-42
2022/03/28 05:11:10;;;;;;;52.20;29.95;;;;;;;0.17;70.76;94482.81;5109933;28;20485;-42
2022/03/28 05:13:35;;;;;;;49.30;24.73;;;;;;;0.36;70.81;94481.53;5111228;28;20031;-42
2022/03/28 05:16:02;;;;;;;42.33;20.95;;;;;;;0.59;69.67;94480.84;5111435;28;20027;-43
2022/03/28 05:18:27;;;;;;;34.67;19.35;;;;;;;0.68;70.31;94478.84;5111081;28;20031;-42
2022/03/28 05:20:53;;;;;;;30.23;17.20;;;;;;;0.94;70.58;94479.19;5111398;28;20073;-42
2022/03/28 05:23:18;;;;;;;57.25;26.77;;;;;;;1.25;69.20;94478.84;5111002;28;20015;-42
2022/03/28 05:25:44;;;;;;;28.00;13.52;;;;;;;1.46;69.10;94475.06;5111023;28;20252;-42
2022/03/28 05:28:09;;;;;;;32.65;18.77;;;;;;;1.52;69.43;94475.91;5111164;28;20020;-42
2022/03/28 05:30:35;;;;;;;56.10;28.48;;;;;;;1.49;69.47;94477.59;5110811;28;20027;-42
2022/03/28 05:33:01;;;;;;;66.90;29.65;;;;;;;1.79;69.59;94478.44;5110917;28;20035;-41
2022/03/28 05:35:27;;;;;;;154.52;56.40;;;;;;;1.96;69.01;94473.28;5110867;28;20023;-42
2022/03/28 05:37:53;;;;;;;108.70;45.50;;;;;;;2.39;67.81;94471.78;5111120;28;20114;-42
2022/03/28 05:40:18;;;;;;;73.55;35.75;;;;;;;2.78;66.70;94473.13;5110711;28;20019;-42
2022/03/28 05:42:44;;;;;;;73.82;29.10;;;;;;;3.12;66.31;94464.19;5107454;28;20034;-42
2022/03/28 05:45:11;;;;;;;62.55;26.88;;;;;;;3.54;65.33;94467.22;5090634;28;20024;-42
2022/03/28 05:47:36;;;;;;;59.13;27.33;;;;;;;3.94;63.47;94452.78;5090739;28;20415;-42
2022/03/28 05:50:03;;;;;;;66.07;26.90;;;;;;;4.97;61.39;94456.13;5090543;28;20036;-42
2022/03/28 05:52:28;;;;;;;65.53;27.95;;;;;;;5.97;58.64;94454.59;5090471;28;20454;-43
2022/03/28 05:54:54;;;;;;;43.22;23.55;;;;;;;6.66;56.36;94444.72;5089462;28;20028;-42
2022/03/28 05:57:19;;;;;;;48.58;26.40;;;;;;;6.87;55.47;94448.69;5090283;28;20032;-42
2022/03/28 05:59:44;;;;;;;81.38;38.15;;;;;;;6.61;56.11;94448.19;5110640;28;20047;-42
2022/03/28 06:02:10;;;;;;;117.60;63.28;;;;;;;6.64;55.75;94449.97;5110766;28;20507;-42
2022/03/28 06:04:35;;;;;;;124.78;62.10;;;;;;;6.89;54.68;94450.94;5110460;28;20061;-42
2022/03/28 06:07:01;;;;;;;112.90;58.85;;;;;;;7.29;54.12;94447.63;5113599;28;20073;-42
2022/03/28 06:09:26;;;;;;;68.30;39.83;;;;;;;7.92;53.37;94439.41;5114594;28;20057;-42
2022/03/28 06:11:52;;;;;;;55.38;33.63;;;;;;;8.79;51.09;94430.38;5114713;28;20031;-42
2022/03/28 06:14:17;;;;;;;74.63;37.63;;;;;;;10.02;48.32;94434.06;5114899;28;20019;-42
2022/03/28 06:16:42;;;;;;;71.50;37.80;;;;;;;10.88;46.21;94431.06;5114723;28;20024;-42
2022/03/28 06:19:08;;;;;;;58.08;30.80;;;;;;;12.05;44.38;94425.66;5114538;28;20019;-43
2022/03/28 06:21:33;;;;;;;57.30;34.58;;;;;;;13.29;41.14;94417.50;5114553;28;20024;-43
2022/03/28 06:23:59;;;;;;;61.33;35.67;;;;;;;14.33;38.75;94423.47;5114769;28;20026;-43
2022/03/28 06:26:24;;;;;;;55.08;31.95;;;;;;;15.02;37.40;94423.09;5114390;28;20051;-43
2022/03/28 06:28:50;;;;;;;75.28;35.13;;;;;;;15.30;36.81;94424.97;5114660;28;20108;-43
2022/03/28 06:31:16;;;;;;;52.55;32.40;;;;;;;15.79;35.72;94422.53;5114538;28;20106;-43
2022/03/28 06:33:41;;;;;;;54.33;32.70;;;;;;;16.42;35.33;94422.53;5114562;28;20423;-44
2022/03/28 06:36:07;;;;;;;41.95;29.15;;;;;;;17.31;33.68;94419.81;5113427;28;20484;-43
2022/03/28 06:38:33;;;;;;;44.70;30.77;;;;;;;18.05;32.78;94422.53;5114236;28;20023;-43
2022/03/28 06:40:58;;;;;;;84.65;38.00;;;;;;;18.59;32.04;94426.97;5093967;28;20020;-43
2022/03/28 06:43:24;;;;;;;123.80;30.42;;;;;;;19.25;30.82;94434.25;5094036;28;20026;-45
2022/03/28 06:45:51;;;;;;;57.60;17.10;;;;;;;19.77;29.90;94436.84;5093663;28;20027;-45
2022/03/28 06:48:17;;;;;;;28.30;16.98;;;;;;;20.24;28.69;94430.59;5093620;28;20824;-44
2022/03/28 06:50:43;;;;;;;27.33;15.18;;;;;;;20.54;28.14;94432.09;5093832;28;20093;-44
2022/03/28 06:53:08;;;;;;;37.80;26.13;;;;;;;21.42;26.89;94429.28;5093569;28;20538;-45
2022/03/28 06:55:34;;;;;;;30.42;24.00;;;;;;;22.08;26.08;94433.09;5093818;28;20404;-45
2022/03/28 06:57:59;;;;;;;25.15;18.70;;;;;;;22.13;25.36;94429.25;5098789;28;20412;-43
2022/03/28 07:00:24;;;;;;;30.20;21.42;;;;;;;22.32;25.58;94429.09;5113578;28;20036;-44
2022/03/28 07:02:50;;;;;;;33.15;23.38;;;;;;;22.68;25.43;94425.13;5113724;28;20032;-44
2022/03/28 07:05:16;;;;;;;30.48;22.13;;;;;;;22.83;25.16;94428.25;5114009;28;20019;-45
2022/03/28 07:07:46;;;;;;;29.63;20.30;;;;;;;23.00;25.73;94427.94;5113937;28;20456;-45
2022/03/28 07:10:12;;;;;;;38.10;24.50;;;;;;;23.61;25.21;94420.47;5113500;28;20519;-43
2022/03/28 07:12:38;;;;;;;33.35;23.35;;;;;;;24.41;23.34;94421.75;5113514;28;20023;-43
2022/03/28 07:15:05;;;;;;;26.65;19.27;;;;;;;25.50;22.46;94420.94;5113539;28;20027;-44
2022/03/28 07:17:31;;;;;;;20.60;14.00;;;;;;;26.15;21.72;94421.53;5112966;28;20062;-44
2022/03/28 07:19:57;;;;;;;19.05;13.55;;;;;;;26.91;20.32;94404.84;5113372;28;20527;-42
2022/03/28 07:22:23;;;;;;;21.40;14.85;;;;;;;27.51;19.67;94418.34;5113326;28;20023;-47
2022/03/28 07:24:48;;;;;;;19.60;13.02;;;;;;;27.98;18.97;94419.09;5113282;28;20037;-43
2022/03/28 07:27:14;;;;;;;14.73;11.55;;;;;;;28.22;18.61;94414.47;5113314;28;20024;-45
2022/03/28 07:29:43;;;;;;;13.88;7.88;;;;;;;28.31;18.34;94407.78;5113473;28;20016;-46
2022/03/28 07:32:09;;;;;;;10.95;6.70;;;;;;;28.59;18.22;94413.97;5113481;28;20110;-44
2022/03/28 07:34:35;;;;;;;7.25;5.82;;;;;;;28.79;17.93;94420.50;5113124;28;20115;-42
2022/03/28 07:37:03;;;;;;;8.52;6.25;;;;;;;28.71;17.67;94413.75;5094803;28;20031;-44
2022/03/28 07:39:29;;;;;;;10.88;6.65;;;;;;;28.84;17.43;94418.56;5092604;28;20493;-43
2022/03/28 07:41:55;;;;;;;23.05;8.40;;;;;;;28.50;18.29;94412.16;5092987;28;20020;-43
2022/03/28 07:44:21;;;;;;;12.77;6.70;;;;;;;27.31;18.11;94409.59;5092524;28;20105;-46
2022/03/28 07:46:47;;;;;;;8.82;5.65;;;;;;;26.95;19.74;94416.38;5092477;28;20020;-46
2022/03/28 07:49:16;;;;;;;11.93;6.80;;;;;;;28.40;18.09;94409.59;5092440;28;20028;-43
2022/03/28 07:51:42;;;;;;;11.35;7.15;;;;;;;29.26;17.47;94414.59;5092395;28;20024;-43
2022/03/28 07:54:07;;;;;;;8.25;6.45;;;;;;;29.16;17.27;94409.25;5092359;28;20512;-43
2022/03/28 07:56:33;;;;;;;11.48;5.78;;;;;;;29.35;16.41;94413.53;5092293;28;20032;-45
2022/03/28 07:58:58;;;;;;;13.48;6.70;;;;;;;28.88;16.74;94413.78;5105956;28;20155;-43
2022/03/28 08:01:24;;;;;;;7.43;5.93;;;;;;;29.69;16.31;94406.31;5112423;28;20094;-43
2022/03/28 08:03:50;;;;;;;7.28;5.82;;;;;;;29.48;16.59;94406.94;5112871;28;20031;-43
2022/03/28 08:06:16;;;;;;;7.55;6.22;;;;;;;29.80;16.10;94404.63;5112585;28;20489;-45
2022/03/28 08:08:41;;;;;;;14.10;8.30;;;;;;;29.33;16.08;94399.25;5112475;28;20028;-43
2022/03/28 08:11:07;;;;;;;8.13;6.03;;;;;;;29.11;16.26;94401.91;5112667;28;20111;-42
2022/03/28 08:13:36;;;;;;;9.48;6.07;;;;;;;28.95;15.90;94406.97;5112715;28;20023;-44
2022/03/28 08:16:02;;;;;;;7.28;5.40;;;;;;;29.72;15.11;94402.16;5112581;27;20074;-45
2022/03/28 08:18:29;;;;;;;7.70;5.50;;;;;;;28.33;17.50;94396.50;5112616;28;20027;-43
2022/03/28 08:20:55;;;;;;;12.77;5.65;;;;;;;30.03;16.08;94395.50;5112581;28;20084;-43
2022/03/28 08:23:20;;;;;;;7.10;4.63;;;;;;;30.28;15.30;94391.41;5112451;28;20028;-44
2022/03/28 08:25:49;;;;;;;7.13;5.10;;;;;;;30.78;14.54;94381.75;5112466;28;20043;-43
2022/03/28 08:28:15;;;;;;;7.88;4.88;;;;;;;30.36;15.59;94388.88;5112364;28;20031;-44
2022/03/28 08:30:40;;;;;;;5.32;4.82;;;;;;;29.25;15.24;94379.00;5111173;28;20424;-45
2022/03/28 08:33:06;;;;;;;15.75;5.45;;;;;;;29.99;14.65;94381.13;5111907;28;20488;-44
2022/03/28 08:35:31;;;;;;;10.20;4.55;;;;;;;30.20;14.83;94380.47;5112215;28;20081;-45
2022/03/28 08:37:58;;;;;;;7.10;5.13;;;;;;;28.76;16.30;94379.16;5112181;28;20016;-44
2022/03/28 08:40:23;;;;;;;8.02;5.32;;;;;;;29.70;15.47;94375.75;5112133;28;20076;-45
2022/03/28 08:42:49;;;;;;;5.93;4.30;;;;;;;30.24;15.17;94371.31;5111805;28;20456;-43
2022/03/28 08:45:15;;;;;;;5.65;5.13;;;;;;;29.80;14.99;94365.47;5110921;28;20037;-43
2022/03/28 08:47:44;;;;;;;6.65;5.15;;;;;;;28.29;16.03;94362.25;5111712;28;20114;-44
2022/03/28 08:50:10;;;;;;;10.82;7.70;;;;;;;28.09;18.19;94360.66;5111573;28;20019;-43
2022/03/28 08:52:40;;;;;;;9.50;6.95;;;;;;;29.65;16.42;94354.94;5105336;28;20028;-45
2022/03/28 08:55:07;;;;;;;6.18;5.20;;;;;;;29.82;16.32;94351.31;5091265;28;20024;-43
2022/03/28 08:57:32;;;;;;;12.55;4.43;;;;;;;28.75;16.40;94351.38;5091101;28;20455;-43
2022/03/28 08:59:58;;;;;;;6.32;4.70;;;;;;;30.41;14.61;94339.91;5090952;28;20036;-45
2022/03/28 09:02:44;;;;;;;9.00;4.45;;;;;;;30.57;14.78;94334.03;5091377;28;20040;-43
2022/03/28 09:05:11;;;;;;;5.32;4.30;;;;;;;31.41;14.34;94327.47;5091291;28;20051;-43
2022/03/28 09:07:37;;;;;;;7.57;4.78;;;;;;;31.61;14.47;94330.19;5091268;28;20100;-45
2022/03/28 09:10:07;;;;;;;6.18;4.60;;;;;;;31.56;13.41;94322.91;5090897;28;20382;-44
2022/03/28 09:12:39;;;;;;;10.95;4.70;;;;;;;32.18;14.07;94316.84;5090939;28;20521;-43
2022/03/28 09:15:09;;;;;;;5.65;4.50;;;;;;;29.89;14.10;94312.41;5091229;28;20024;-45
2022/03/28 09:17:35;;;;;;;6.03;4.28;;;;;;;29.72;14.91;94308.22;5090862;28;20725;-42
2022/03/28 09:20:04;;;;;;;5.45;4.30;;;;;;;30.24;13.68;94305.78;5089531;28;20112;-44
2022/03/28 09:22:32;;;;;;;7.30;4.28;;;;;;;30.79;14.69;94299.81;5090659;28;20463;-43
2022/03/28 09:25:03;;;;;;;5.43;3.88;;;;;;;29.76;14.34;94299.88;5090782;28;20024;-45
2022/03/28 09:27:30;;;;;;;5.72;3.58;;;;;;;29.32;15.02;94295.38;5090810;28;20471;-44
2022/03/28 09:30:05;;;;;;;9.25;3.90;;;;;;;30.57;14.13;94291.28;5090893;28;20128;-44
2022/03/28 09:32:52;;;;;;;4.30;3.45;;;;;;;31.75;11.97;94284.94;5090477;28;20103;-45
2022/03/28 09:35:21;;;;;;;4.30;3.17;;;;;;;31.00;13.25;94284.81;5090823;28;20027;-46
2022/03/28 09:38:04;;;;;;;5.03;3.10;;;;;;;30.78;12.09;94284.09;5090897;28;20047;-45
2022/03/28 09:40:45;;;;;;;4.72;3.50;;;;;;;30.29;13.44;94276.78;5090189;28;20046;-46
2022/03/28 09:43:22;;;;;;;7.47;3.72;;;;;;;30.39;13.87;94279.25;5090468;28;20024;-44
2022/03/28 09:45:50;;;;;;;7.20;3.92;;;;;;;29.98;15.21;94269.34;5090403;28;20020;-44
2022/03/28 09:48:19;;;;;;;10.57;4.50;;;;;;;30.61;13.89;94269.31;5090759;28;20020;-42
2022/03/28 09:50:46;;;;;;;;;;;;;;;30.61;12.92;94266.47;5090831;28;20815;-45
2022/03/28 09:53:21;;;;;;;3.58;2.90;;;;;;;30.43;12.77;94259.47;5090574;28;20312;-44
2022/03/28 09:55:49;;;;;;;7.03;4.50;;;;;;;31.15;14.33;94258.91;5090673;28;20032;-44
2022/03/28 09:58:42;;;;;;;4.50;3.30;;;;;;;31.10;13.55;94259.47;5090231;28;20020;-42
2022/03/28 10:01:12;;;;;;;5.07;3.83;;;;;;;31.21;12.85;94247.66;5090194;28;20044;-44
2022/03/28 10:03:39;;;;;;;3.50;3.17;;;;;;;31.54;12.80;94242.91;5090487;28;20055;-43
2022/03/28 10:06:06;;;;;;;4.70;2.92;;;;;;;31.42;13.68;94235.47;5090294;28;20044;-45
2022/03/28 10:08:32;;;;;;;5.45;2.90;;;;;;;32.09;13.04;94234.47;5090105;28;20070;-44
2022/03/28 10:10:58;;;;;;;6.13;3.03;;;;;;;32.73;11.99;94238.94;5090113;28;20531;-48
2022/03/28 10:13:24;;;;;;;5.55;3.10;;;;;;;33.29;12.03;94228.06;5090443;28;20016;-45
2022/03/28 10:15:50;;;;;;;5.53;3.13;;;;;;;32.85;11.35;94222.03;5090388;28;20054;-44
2022/03/28 10:18:16;;;;;;;4.75;3.28;;;;;;;33.85;11.74;94219.19;5090430;28;20111;-45
2022/03/28 10:20:43;;;;;;;4.90;3.75;;;;;;;32.08;13.29;94216.59;5090379;28;20016;-46
2022/03/28 10:23:12;;;;;;;4.75;3.67;;;;;;;32.89;11.96;94210.72;5090354;28;20024;-47
2022/03/28 10:25:38;;;;;;;;;;;;;;;33.08;11.85;94203.28;5107631;28;20488;-45
2022/03/28 10:28:04;;;;;;;6.60;4.43;;;;;;;33.25;11.64;94202.22;5109188;28;19911;-44
2022/03/28 10:30:30;;;;;;;6.75;4.70;;;;;;;32.84;10.87;94194.13;5109153;28;20424;-43
2022/03/28 10:33:11;;;;;;;8.63;4.82;;;;;;;31.52;11.19;94197.91;5110675;28;20061;-46
2022/03/28 10:35:37;;;;;;;8.73;4.95;;;;;;;31.72;12.60;94197.75;5110396;28;20069;-45
2022/03/28 10:38:19;;;;;;;9.48;5.50;;;;;;;31.65;12.51;94187.56;5110239;28;20110;-46
2022/03/28 10:41:02;;;;;;;6.38;5.07;;;;;;;30.24;13.12;94183.28;5110535;28;20064;-44
2022/03/28 10:43:29;;;;;;;8.07;5.50;;;;;;;29.77;13.21;94187.47;5110236;28;20019;-45
2022/03/28 10:46:09;;;;;;;8.97;5.27;;;;;;;30.04;13.72;94176.97;5110503;28;20034;-44
2022/03/28 10:48:46;;;;;;;10.68;5.30;;;;;;;30.28;13.20;94169.16;5110205;28;21014;-45
2022/03/28 10:51:18;;;;;;;9.63;5.03;;;;;;;30.30;13.31;94172.81;5110021;28;20405;-43
2022/03/28 10:53:51;;;;;;;41.80;8.07;;;;;;;29.96;13.74;94163.91;5111270;28;20015;-45
2022/03/28 10:56:19;;;;;;;9.15;4.65;;;;;;;29.34;13.91;94167.44;5113951;28;20565;-45
2022/03/28 10:59:15;;;;;;;6.78;4.65;;;;;;;28.71;13.93;94164.38;5113864;28;20128;-43
2022/03/28 11:01:42;;;;;;;13.40;5.85;;;;;;;28.28;15.06;94166.94;5106143;28;20143;-45
2022/03/28 11:04:18;;;;;;;9.98;5.32;;;;;;;28.48;14.59;94162.75;5113723;28;20028;-43
2022/03/28 11:06:45;;;;;;;13.85;5.38;;;;;;;28.23;14.82;94149.00;5114109;28;20104;-45
2022/03/28 11:09:11;;;;;;;13.25;7.32;;;;;;;27.91;15.02;94156.22;5113565;28;20119;-46
2022/03/28 11:11:36;;;;;;;84.93;10.57;;;;;;;27.39;16.09;94145.50;5112579;28;20034;-45
2022/03/28 11:14:08;;;;;;;15.50;9.15;;;;;;;27.11;15.16;94144.25;5113555;28;20032;-46
2022/03/28 11:16:51;;;;;;;19.42;7.65;;;;;;;26.95;14.74;94141.44;5113866;28;20419;-47
2022/03/28 11:19:23;;;;;;;10.95;6.82;;;;;;;26.97;15.03;94141.53;5113867;28;20033;-44
2022/03/28 11:22:04;;;;;;;10.27;6.60;;;;;;;26.36;15.21;94132.38;5113355;28;20038;-44
2022/03/28 11:25:04;;;;;;;15.32;8.60;;;;;;;26.21;15.48;94127.44;5113664;28;20114;-44
2022/03/28 11:27:34;;;;;;;13.23;7.65;;;;;;;26.25;15.73;94130.44;5070217;28;20093;-45